Time,TemperatureF,DewpointF,PressureIn,WindDirection,WindDirectionDegrees,WindSpeedMPH,WindSpeedGustMPH,Humidity,HourlyPrecipIn,Conditions,Clouds,dailyrainin,SoftwareType,DateUTC
2013-06-27 00:22:00,69.0,-99.9,-100.00,WNW,285,0.0,2.0,-999,0.00,,,-99.99,,2013-06-27 04:22:00,
2013-06-27 00:53:00,69.0,-99.9,-100.00,WSW,240,1.0,2.0,-999,0.00,,,-99.99,,2013-06-27 04:53:00,
2013-06-27 01:22:00,69.0,-99.9,-100.00,SW,220,1.0,2.0,-999,0.00,,,-99.99,,2013-06-27 05:22:00,
2013-06-27 01:33:00,69.0,-99.9,-100.00,SW,215,0.0,2.0,-999,0.00,,,-99.99,,2013-06-27 05:33:00,
2013-06-27 01:42:00,68.0,-99.9,-100.00,NE,40,2.0,4.0,-999,0.00,,,-99.99,,2013-06-27 05:42:00,
2013-06-27 02:23:00,68.0,-99.9,-100.00,WSW,245,1.0,2.0,-999,0.55,,,-99.99,,2013-06-27 06:23:00,
2013-06-27 02:34:00,68.0,-99.9,-100.00,SSE,165,0.0,3.0,-999,0.00,,,-99.99,,2013-06-27 06:34:00,
2013-06-27 02:53:00,68.0,-99.9,-100.00,North,0,1.0,3.0,-999,0.00,,,-99.99,,2013-06-27 06:53:00,
2013-06-27 03:22:00,68.0,-99.9,-100.00,SW,235,1.0,2.0,-999,1.10,,,-99.99,,2013-06-27 07:22:00,
2013-06-27 04:02:00,67.0,-99.9,-100.00,SE,140,1.0,2.0,-999,0.55,,,-99.99,,2013-06-27 08:02:00,
2013-06-27 04:11:00,68.0,-99.9,-100.00,SSW,195,0.0,2.0,-999,0.55,,,-99.99,,2013-06-27 08:11:00,
2013-06-27 04:22:00,67.0,-99.9,-100.00,SW,220,1.0,1.0,-999,0.55,,,-99.99,,2013-06-27 08:22:00,
2013-06-27 05:12:00,68.0,-99.9,-100.00,North,0,0.0,2.0,-999,0.55,,,-99.99,,2013-06-27 09:12:00,
2013-06-27 05:34:00,67.0,-99.9,-100.00,SSE,150,1.0,1.0,-999,2.24,,,-99.99,,2013-06-27 09:34:00,
2013-06-27 05:43:00,67.0,-99.9,-100.00,WNW,295,1.0,2.0,-999,2.24,,,-99.99,,2013-06-27 09:43:00,
2013-06-27 06:01:00,68.0,-99.9,-100.00,WSW,250,0.0,2.0,-999,2.83,,,-99.99,,2013-06-27 10:01:00,
2013-06-27 06:11:00,67.0,-99.9,-100.00,South,175,0.0,1.0,-999,6.22,,,-99.99,,2013-06-27 10:11:00,
2013-06-27 06:22:00,68.0,-99.9,-100.00,SE,140,1.0,4.0,-999,3.94,,,-99.99,,2013-06-27 10:22:00,
2013-06-27 06:32:00,67.0,-99.9,-100.00,South,170,0.0,1.0,-999,1.10,,,-99.99,,2013-06-27 10:32:00,
2013-06-27 06:54:00,67.0,-99.9,-100.00,SW,220,1.0,3.0,-999,0.00,,,-99.99,,2013-06-27 10:54:00,
2013-06-27 07:02:00,67.0,-99.9,-100.00,East,85,1.0,2.0,-999,0.55,,,-99.99,,2013-06-27 11:02:00,
2013-06-27 07:53:00,67.0,-99.9,-100.00,NNE,25,1.0,7.0,-999,0.00,,,-99.99,,2013-06-27 11:53:00,
2013-06-27 08:02:00,68.0,-99.9,-100.00,NE,45,1.0,7.0,-999,0.00,,,-99.99,,2013-06-27 12:02:00,
2013-06-27 08:12:00,68.0,-99.9,-100.00,NE,55,2.0,4.0,-999,0.00,,,-99.99,,2013-06-27 12:12:00,
2013-06-27 08:22:00,68.0,-99.9,-100.00,East,80,1.0,3.0,-999,0.00,,,-99.99,,2013-06-27 12:22:00,
2013-06-27 08:34:00,68.0,-99.9,-100.00,ENE,75,1.0,4.0,-999,0.00,,,-99.99,,2013-06-27 12:34:00,
2013-06-27 09:22:00,68.0,-99.9,-100.00,NE,40,2.0,6.0,-999,1.10,,,-99.99,,2013-06-27 13:22:00,
2013-06-27 09:34:00,68.0,-99.9,-100.00,NE,55,2.0,5.0,-999,0.55,,,-99.99,,2013-06-27 13:34:00,
2013-06-27 09:43:00,68.0,-99.9,-100.00,NE,45,2.0,7.0,-999,0.55,,,-99.99,,2013-06-27 13:43:00,
2013-06-27 09:53:00,68.0,-99.9,-100.00,NNE,30,2.0,7.0,-999,0.55,,,-99.99,,2013-06-27 13:53:00,
2013-06-27 10:02:00,69.0,-99.9,-100.00,NE,40,2.0,6.0,-999,0.00,,,-99.99,,2013-06-27 14:02:00,
2013-06-27 10:12:00,69.0,-99.9,-100.00,East,100,2.0,5.0,-999,0.00,,,-99.99,,2013-06-27 14:12:00,
2013-06-27 10:43:00,70.0,-99.9,-100.00,ENE,60,2.0,6.0,-999,0.00,,,-99.99,,2013-06-27 14:43:00,
2013-06-27 11:12:00,71.0,69.0,-100.00,ENE,60,2.0,7.0,94,0.00,,,-99.99,,2013-06-27 15:12:00,
2013-06-27 11:52:00,72.0,69.0,-100.00,NE,50,1.0,6.0,89,0.00,,,-99.99,,2013-06-27 15:52:00,
2013-06-27 12:11:00,73.0,68.0,-100.00,ENE,70,4.0,7.0,84,0.00,,,-99.99,,2013-06-27 16:11:00,
2013-06-27 12:23:00,75.0,69.0,-100.00,NNE,25,2.0,7.0,83,0.00,,,-99.99,,2013-06-27 16:23:00,
2013-06-27 12:34:00,74.0,69.0,-100.00,ENE,60,2.0,10.0,85,0.00,,,-99.99,,2013-06-27 16:34:00,
2013-06-27 12:53:00,75.0,68.0,-100.00,NE,40,4.0,8.0,78,0.00,,,-99.99,,2013-06-27 16:53:00,
2013-06-27 13:53:00,73.0,70.0,-100.00,NE,35,4.0,9.0,90,2.83,,,-99.99,,2013-06-27 17:53:00,
2013-06-27 14:01:00,73.0,71.0,-100.00,SE,125,1.0,6.0,93,0.55,,,-99.99,,2013-06-27 18:01:00,
2013-06-27 14:12:00,73.0,71.0,-100.00,NE,40,2.0,6.0,93,0.00,,,-99.99,,2013-06-27 18:12:00,
2013-06-27 14:22:00,73.0,71.0,-100.00,ENE,70,4.0,11.0,92,0.00,,,-99.99,,2013-06-27 18:22:00,
2013-06-27 14:32:00,72.0,70.0,-100.00,NE,40,4.0,11.0,94,2.83,,,-99.99,,2013-06-27 18:32:00,
2013-06-27 14:52:00,72.0,-99.9,-100.00,NNE,15,4.0,6.0,-999,0.00,,,-99.99,,2013-06-27 18:52:00,
2013-06-27 15:01:00,72.0,-99.9,-100.00,NE,50,4.0,9.0,-999,0.00,,,-99.99,,2013-06-27 19:01:00,
2013-06-27 15:23:00,74.0,72.0,-100.00,NE,50,6.0,9.0,93,0.00,,,-99.99,,2013-06-27 19:23:00,
2013-06-27 15:34:00,75.0,71.0,-100.00,NE,40,4.0,9.0,87,0.00,,,-99.99,,2013-06-27 19:34:00,
2013-06-27 15:42:00,74.0,71.0,-100.00,NE,35,3.0,7.0,88,0.00,,,-99.99,,2013-06-27 19:42:00,
2013-06-27 15:53:00,74.0,70.0,-100.00,NE,45,2.0,7.0,87,0.55,,,-99.99,,2013-06-27 19:53:00,
2013-06-27 16:11:00,75.0,70.0,-100.00,NE,35,3.0,7.0,84,0.00,,,-99.99,,2013-06-27 20:11:00,
2013-06-27 16:22:00,75.0,71.0,-100.00,East,80,2.0,6.0,85,0.00,,,-99.99,,2013-06-27 20:22:00,
2013-06-27 16:37:00,75.0,71.0,-100.00,NNE,20,0.0,3.0,86,1.10,,,-99.99,,2013-06-27 20:37:00,
2013-06-27 16:46:00,75.0,71.0,-100.00,SSE,155,1.0,4.0,88,0.00,,,-99.99,,2013-06-27 20:46:00,
2013-06-27 16:54:00,75.0,71.0,-100.00,West,265,1.0,4.0,90,0.00,,,-99.99,,2013-06-27 20:54:00,
2013-06-27 17:36:00,78.0,71.0,-100.00,SW,215,1.0,3.0,79,0.00,,,-99.99,,2013-06-27 21:36:00,
2013-06-27 17:53:00,81.0,71.0,-100.00,ESE,105,1.0,3.0,73,0.00,,,-99.99,,2013-06-27 21:53:00,
2013-06-27 18:15:00,79.0,69.0,-100.00,ESE,105,2.0,7.0,70,0.00,,,-99.99,,2013-06-27 22:15:00,
2013-06-27 18:24:00,81.0,69.0,-100.00,East,100,1.0,3.0,66,0.00,,,-99.99,,2013-06-27 22:24:00,
2013-06-27 18:35:00,80.0,68.0,-100.00,NE,40,6.0,9.0,65,0.00,,,-99.99,,2013-06-27 22:35:00,
2013-06-27 18:48:00,80.0,66.0,-100.00,ENE,65,3.0,10.0,62,0.00,,,-99.99,,2013-06-27 22:48:00,
2013-06-27 19:25:00,80.0,68.0,-100.00,ENE,75,4.0,9.0,67,0.00,,,-99.99,,2013-06-27 23:25:00,
2013-06-27 21:26:00,72.0,71.0,-100.00,SE,130,1.0,2.0,94,0.00,,,-99.99,,2013-06-28 01:26:00,
2013-06-27 21:35:00,72.0,71.0,-100.00,SSE,150,1.0,2.0,95,0.00,,,-99.99,,2013-06-28 01:35:00,
2013-06-27 21:56:00,72.0,71.0,-100.00,SSW,195,0.0,3.0,95,0.55,,,-99.99,,2013-06-28 01:56:00,
2013-06-27 22:18:00,71.0,-99.9,-100.00,East,100,1.0,3.0,-999,2.24,,,-99.99,,2013-06-28 02:18:00,
2013-06-27 22:29:00,71.0,-99.9,-100.00,SE,125,0.0,2.0,-999,1.10,,,-99.99,,2013-06-28 02:29:00,
2013-06-27 22:58:00,71.0,-99.9,-100.00,East,85,1.0,2.0,-999,1.69,,,-99.99,,2013-06-28 02:58:00,
2013-06-27 23:08:00,71.0,-99.9,-100.00,SW,230,2.0,4.0,-999,0.00,,,-99.99,,2013-06-28 03:08:00,
2013-06-27 23:15:00,71.0,-99.9,-100.00,East,80,1.0,3.0,-999,0.00,,,-99.99,,2013-06-28 03:15:00,
2013-06-27 23:28:00,71.0,-99.9,-100.00,ENE,70,1.0,3.0,-999,0.00,,,-99.99,,2013-06-28 03:28:00,
2013-06-27 23:40:00,71.0,-99.9,-100.00,East,100,2.0,3.0,-999,0.00,,,-99.99,,2013-06-28 03:40:00,
2013-06-27 23:46:00,71.0,-99.9,-100.00,NE,50,0.0,3.0,-999,0.00,,,-99.99,,2013-06-28 03:46:00,
2013-06-27 23:58:00,70.0,-99.9,-100.00,SE,130,1.0,1.0,-999,0.00,,,-99.99,,2013-06-28 03:58:00,